Time;durP1;ratioP1;P1;durP2;ratioP2;P2;SDS_P1;SDS_P2;PMS_P1;PMS_P2;Temp;Humidity;BMP_temperature;BMP_pressure;BME280_temperature;BME280_humidity;BME280_pressure;Samples;Min_cycle;Max_cycle;Signal;HPM_P1;HPM_P2
2023/10/01 00:00:28;;;;;;;6.43;4.35;;;;;;;;;;4925139;29;20444;-67
2023/10/01 00:02:56;;;;;;;5.78;4.18;;;;;;;;;;4902921;29;20433;-67
2023/10/01 00:05:25;;;;;;;7.38;4.25;;;;;;;;;;4932124;29;20442;-67
2023/10/01 00:07:52;;;;;;;7.53;4.10;;;;;;;;;;4922484;29;20543;-67
2023/10/01 00:10:20;;;;;;;6.00;3.92;;;;;;;;;;4924763;29;20913;-67
2023/10/01 00:12:54;;;;;;;7.13;4.18;;;;;;;;;;4925195;29;20435;-67
2023/10/01 00:15:24;;;;;;;8.57;4.03;;;;;;;;;;4917899;29;20532;-67
2023/10/01 00:17:52;;;;;;;45.28;42.30;;;;;;;;;;4922391;29;20437;-67
2023/10/01 00:20:23;;;;;;;6.10;4.67;;;;;;;;;;4920864;29;20448;-67
2023/10/01 00:22:52;;;;;;;23.65;21.95;;;;;;;;;;4926160;29;20526;-67
2023/10/01 00:25:22;;;;;;;27.55;25.38;;;;;;;;;;4929981;29;20445;-67
2023/10/01 00:27:49;;;;;;;63.75;59.50;;;;;;;;;;4897902;29;20544;-67
2023/10/01 00:30:16;;;;;;;130.00;120.38;;;;;;;;;;4919435;29;20453;-68
2023/10/01 00:32:44;;;;;;;22.20;20.63;;;;;;;;;;4922834;29;20506;-67
2023/10/01 00:35:11;;;;;;;245.15;224.32;;;;;;;;;;4924046;29;20443;-67
2023/10/01 00:37:38;;;;;;;556.67;506.60;;;;;;;;;;4926663;29;20464;-67
2023/10/01 00:40:08;;;;;;;648.20;567.90;;;;;;;;;;4923582;29;20843;-67
2023/10/01 00:42:38;;;;;;;771.58;617.83;;;;;;;;;;4921589;29;20452;-67
2023/10/01 00:45:14;;;;;;;792.88;582.53;;;;;;;;;;4930639;29;20439;-67
2023/10/01 00:47:42;;;;;;;791.40;579.85;;;;;;;;;;4930339;29;20451;-67
2023/10/01 00:50:15;;;;;;;784.97;584.08;;;;;;;;;;4925444;29;20528;-67
2023/10/01 00:52:44;;;;;;;776.03;590.05;;;;;;;;;;4925677;29;20439;-67
2023/10/01 00:55:13;;;;;;;772.40;589.08;;;;;;;;;;4924622;29;20441;-67
2023/10/01 00:57:42;;;;;;;769.78;573.33;;;;;;;;;;4923553;29;21044;-68
2023/10/01 01:00:12;;;;;;;761.00;574.90;;;;;;;;;;4924324;29;20445;-68
2023/10/01 01:02:47;;;;;;;757.72;597.22;;;;;;;;;;4928543;29;20443;-68
2023/10/01 01:05:23;;;;;;;754.38;617.25;;;;;;;;;;4900371;29;20484;-67
2023/10/01 01:07:54;;;;;;;747.77;576.40;;;;;;;;;;4920634;29;20532;-67
2023/10/01 01:10:26;;;;;;;746.42;571.28;;;;;;;;;;4926329;29;20922;-67
2023/10/01 01:12:54;;;;;;;751.00;536.75;;;;;;;;;;4922238;29;20479;-67
2023/10/01 01:15:21;;;;;;;746.60;537.63;;;;;;;;;;4910981;29;20461;-67
2023/10/01 01:17:50;;;;;;;718.50;531.03;;;;;;;;;;4930475;29;20859;-67
2023/10/01 01:20:22;;;;;;;600.38;533.80;;;;;;;;;;4926642;29;20502;-67
2023/10/01 01:22:52;;;;;;;649.20;526.60;;;;;;;;;;4922157;29;20844;-67
2023/10/01 01:25:25;;;;;;;618.53;521.67;;;;;;;;;;4920876;29;20471;-67
2023/10/01 01:27:53;;;;;;;596.17;518.85;;;;;;;;;;4927061;29;20451;-68
2023/10/01 01:30:26;;;;;;;575.70;510.30;;;;;;;;;;4926847;29;20447;-68
2023/10/01 01:32:55;;;;;;;581.25;519.20;;;;;;;;;;4924774;29;20471;-68
2023/10/01 01:35:28;;;;;;;565.13;507.73;;;;;;;;;;4907607;29;20441;-67
2023/10/01 01:37:58;;;;;;;548.20;494.05;;;;;;;;;;4922023;29;20435;-67
2023/10/01 01:40:31;;;;;;;428.77;392.38;;;;;;;;;;4928626;29;20522;-67
2023/10/01 01:43:04;;;;;;;526.53;477.75;;;;;;;;;;4924778;29;21093;-67
2023/10/01 01:45:38;;;;;;;525.07;477.70;;;;;;;;;;4915240;29;20441;-67
2023/10/01 01:48:21;;;;;;;393.15;357.83;;;;;;;;;;4920276;29;20516;-67
2023/10/01 01:50:49;;;;;;;342.90;312.70;;;;;;;;;;4918230;29;20524;-67
2023/10/01 01:53:19;;;;;;;191.93;176.80;;;;;;;;;;4926338;29;20973;-67
2023/10/01 01:55:47;;;;;;;6.60;3.50;;;;;;;;;;4925790;29;20441;-67
2023/10/01 01:58:24;;;;;;;6.85;4.28;;;;;;;;;;4924917;29;20445;-67
2023/10/01 02:04:00;;;;;;;20.33;18.83;;;;;;;;;;4853363;29;20450;-67
2023/10/01 02:06:27;;;;;;;31.45;29.10;;;;;;;;;;4853765;29;21045;-67
2023/10/01 02:08:58;;;;;;;37.22;34.65;;;;;;;;;;4848438;29;20446;-67
2023/10/01 02:11:32;;;;;;;6.87;4.03;;;;;;;;;;4852485;29;20482;-67
2023/10/01 02:13:59;;;;;;;65.20;59.83;;;;;;;;;;4857272;29;20500;-67
2023/10/01 02:19:14;;;;;;;36.80;33.88;;;;;;;;;;4853193;29;21213;-67
2023/10/01 02:21:42;;;;;;;56.80;52.30;;;;;;;;;;4858982;29;20490;-67
2023/10/01 02:24:14;;;;;;;5.65;3.80;;;;;;;;;;4855906;29;20440;-67
2023/10/01 02:26:42;;;;;;;6.00;3.97;;;;;;;;;;4857671;29;21057;-67
2023/10/01 02:29:12;;;;;;;6.28;5.68;;;;;;;;;;4851651;29;20449;-67
2023/10/01 02:31:54;;;;;;;8.13;4.60;;;;;;;;;;4856737;29;20452;-66
2023/10/01 02:34:22;;;;;;;9.43;4.60;;;;;;;;;;4851649;29;20446;-67
2023/10/01 02:36:49;;;;;;;7.07;4.28;;;;;;;;;;4853320;29;20450;-67
2023/10/01 02:39:21;;;;;;;6.83;4.00;;;;;;;;;;4860437;29;20447;-67
2023/10/01 02:42:09;;;;;;;7.45;4.07;;;;;;;;;;4920166;29;20824;-67
2023/10/01 02:44:40;;;;;;;6.35;4.00;;;;;;;;;;4915677;29;20479;-67
2023/10/01 02:47:18;;;;;;;5.50;4.03;;;;;;;;;;4914401;29;20441;-67
2023/10/01 02:49:49;;;;;;;9.23;4.13;;;;;;;;;;4924053;29;20535;-67
2023/10/01 02:52:17;;;;;;;7.65;4.00;;;;;;;;;;4919146;29;20807;-67
2023/10/01 02:54:53;;;;;;;8.10;4.35;;;;;;;;;;4921369;29;21070;-67
2023/10/01 02:57:24;;;;;;;8.52;4.38;;;;;;;;;;4918932;29;20441;-67
2023/10/01 03:02:38;;;;;;;7.75;4.43;;;;;;;;;;4919987;29;20447;-67
2023/10/01 03:05:08;;;;;;;7.60;4.78;;;;;;;;;;4929608;29;20475;-67
2023/10/01 03:07:45;;;;;;;6.95;4.10;;;;;;;;;;4921382;29;20502;-67
2023/10/01 03:10:38;;;;;;;11.43;4.55;;;;;;;;;;4921668;29;20476;-67
2023/10/01 03:13:14;;;;;;;7.95;4.50;;;;;;;;;;4919450;29;20508;-67
2023/10/01 03:16:37;;;;;;;7.50;4.78;;;;;;;;;;4926938;29;20443;-67
2023/10/01 03:18:36;;;;;;;6.82;4.60;;;;;;;;;;4914416;29;20684;-67
2023/10/01 03:21:17;;;;;;;6.75;5.65;;;;;;;;;;4923381;29;20439;-67
2023/10/01 03:23:53;;;;;;;6.53;3.90;;;;;;;;;;4919366;29;20817;-67
2023/10/01 03:26:21;;;;;;;5.35;4.18;;;;;;;;;;4918924;29;20522;-67
2023/10/01 03:31:37;;;;;;;67.50;62.65;;;;;;;;;;4925933;29;20445;-67
2023/10/01 03:34:06;;;;;;;31.38;28.95;;;;;;;;;;4921646;29;20448;-67
2023/10/01 03:36:42;;;;;;;14.50;13.18;;;;;;;;;;4919775;29;20442;-67
2023/10/01 03:39:25;;;;;;;12.27;6.68;;;;;;;;;;4912316;29;20492;-67
2023/10/01 03:42:13;;;;;;;77.45;72.10;;;;;;;;;;4918588;29;20441;-67
2023/10/01 03:47:34;;;;;;;309.23;283.05;;;;;;;;;;4923295;29;20857;-67
2023/10/01 03:50:03;;;;;;;442.33;403.95;;;;;;;;;;4915044;29;20441;-67
2023/10/01 03:52:39;;;;;;;465.35;421.50;;;;;;;;;;4923643;29;20427;-67
2023/10/01 03:58:39;;;;;;;555.23;504.60;;;;;;;;;;4924227;29;20775;-67
2023/10/01 04:00:41;;;;;;;586.05;530.45;;;;;;;;;;4905169;29;20500;-66
2023/10/01 04:03:13;;;;;;;565.83;512.78;;;;;;;;;;4919033;29;20796;-66
2023/10/01 04:05:45;;;;;;;568.42;515.83;;;;;;;;;;4927286;29;20518;-67
2023/10/01 04:08:12;;;;;;;580.03;522.58;;;;;;;;;;4916329;29;20444;-67
2023/10/01 04:10:41;;;;;;;621.87;555.13;;;;;;;;;;4917616;29;20453;-67
2023/10/01 04:13:12;;;;;;;572.40;516.08;;;;;;;;;;4914800;29;20496;-67
2023/10/01 04:15:41;;;;;;;573.47;515.70;;;;;;;;;;4915888;29;20441;-67
2023/10/01 04:18:09;;;;;;;554.60;500.20;;;;;;;;;;4920888;29;20518;-67
2023/10/01 04:20:37;;;;;;;550.00;494.60;;;;;;;;;;4924992;29;20511;-67
2023/10/01 04:23:05;;;;;;;626.25;535.95;;;;;;;;;;4917519;29;20516;-67
2023/10/01 04:25:36;;;;;;;655.83;545.78;;;;;;;;;;4923099;29;20516;-67
2023/10/01 04:28:08;;;;;;;716.28;579.88;;;;;;;;;;4925053;29;20446;-67
2023/10/01 04:30:35;;;;;;;636.75;531.90;;;;;;;;;;4902926;29;20501;-66
2023/10/01 04:33:16;;;;;;;636.92;527.00;;;;;;;;;;4925270;29;20505;-67
2023/10/01 04:36:10;;;;;;;636.05;535.05;;;;;;;;;;4920601;29;20437;-66
2023/10/01 04:38:35;;;;;;;642.00;537.42;;;;;;;;;;4923828;29;20544;-67
2023/10/01 04:41:16;;;;;;;678.92;557.70;;;;;;;;;;4924191;29;20516;-66
2023/10/01 04:43:59;;;;;;;647.87;548.10;;;;;;;;;;4923562;29;20447;-66
2023/10/01 04:46:37;;;;;;;651.00;553.22;;;;;;;;;;4922213;29;20446;-66
2023/10/01 04:52:10;;;;;;;608.55;543.00;;;;;;;;;;4924832;29;20455;-67
2023/10/01 04:54:44;;;;;;;577.80;515.85;;;;;;;;;;4923464;29;20444;-66
2023/10/01 04:57:12;;;;;;;584.83;522.85;;;;;;;;;;4921873;29;20448;-66
2023/10/01 04:59:56;;;;;;;647.27;562.53;;;;;;;;;;4922536;29;20443;-67
2023/10/01 05:02:25;;;;;;;645.88;561.92;;;;;;;;;;4924425;29;20447;-67
2023/10/01 05:05:09;;;;;;;652.92;551.65;;;;;;;;;;4913331;29;20435;-66
2023/10/01 05:07:37;;;;;;;606.67;536.93;;;;;;;;;;4922983;29;20938;-67
2023/10/01 05:10:07;;;;;;;608.78;534.80;;;;;;;;;;4922318;29;20524;-67
2023/10/01 05:12:43;;;;;;;635.47;550.08;;;;;;;;;;4928994;29;20462;-66
2023/10/01 05:15:24;;;;;;;605.78;538.13;;;;;;;;;;4923211;29;21119;-67
2023/10/01 05:17:55;;;;;;;5.80;3.58;;;;;;;;;;4923890;29;20454;-67
2023/10/01 05:20:25;;;;;;;4.70;3.33;;;;;;;;;;4925164;29;20431;-67
2023/10/01 05:22:54;;;;;;;6.30;3.58;;;;;;;;;;4922393;29;20444;-67
2023/10/01 05:25:26;;;;;;;6.63;3.83;;;;;;;;;;4932073;29;20439;-67
2023/10/01 05:27:56;;;;;;;41.05;38.22;;;;;;;;;;4927078;29;20443;-67
2023/10/01 05:30:47;;;;;;;49.42;46.10;;;;;;;;;;4927662;29;20467;-67
2023/10/01 05:33:12;;;;;;;48.10;44.75;;;;;;;;;;4926628;29;20444;-67
2023/10/01 05:35:44;;;;;;;43.00;40.00;;;;;;;;;;4903172;29;20985;-67
2023/10/01 05:38:16;;;;;;;54.88;51.10;;;;;;;;;;4923866;29;20441;-67
2023/10/01 05:40:52;;;;;;;83.28;77.57;;;;;;;;;;4921918;29;20443;-67
2023/10/01 05:43:19;;;;;;;38.10;35.53;;;;;;;;;;4918225;29;20524;-67
2023/10/01 05:45:52;;;;;;;27.63;25.55;;;;;;;;;;4929525;29;20498;-67
2023/10/01 05:48:22;;;;;;;19.17;17.77;;;;;;;;;;4929285;29;20519;-66
2023/10/01 05:50:52;;;;;;;91.70;85.53;;;;;;;;;;4927455;29;20448;-66
2023/10/01 05:53:20;;;;;;;8.00;3.83;;;;;;;;;;4925901;29;20449;-66
2023/10/01 05:55:48;;;;;;;3.75;3.40;;;;;;;;;;4920130;29;20443;-66
2023/10/01 05:58:16;;;;;;;4.57;3.25;;;;;;;;;;4898990;29;20452;-66
2023/10/01 06:00:56;;;;;;;6.50;3.00;;;;;;;;;;4926547;29;20478;-66
2023/10/01 06:03:25;;;;;;;4.07;3.45;;;;;;;;;;4917173;29;20446;-66
2023/10/01 06:05:59;;;;;;;6.45;3.55;;;;;;;;;;4928209;29;20445;-66
2023/10/01 06:08:32;;;;;;;6.10;2.80;;;;;;;;;;4920181;29;20831;-66
2023/10/01 06:11:13;;;;;;;4.75;2.65;;;;;;;;;;4918748;29;20546;-66
2023/10/01 06:13:51;;;;;;;4.75;3.13;;;;;;;;;;4924560;29;20520;-66
2023/10/01 06:16:25;;;;;;;4.25;2.70;;;;;;;;;;4915790;29;20449;-66
2023/10/01 06:18:57;;;;;;;4.87;2.80;;;;;;;;;;4922149;29;20450;-66
2023/10/01 06:21:27;;;;;;;6.82;3.50;;;;;;;;;;4930534;29;20439;-66
2023/10/01 06:23:58;;;;;;;4.78;3.03;;;;;;;;;;4920281;29;20441;-66
2023/10/01 06:29:16;;;;;;;6.55;2.95;;;;;;;;;;4928896;29;20450;-66
2023/10/01 06:32:03;;;;;;;3.13;2.50;;;;;;;;;;4922730;29;20498;-66
2023/10/01 06:34:32;;;;;;;4.10;2.42;;;;;;;;;;4917039;29;20777;-66
2023/10/01 06:37:01;;;;;;;4.32;2.63;;;;;;;;;;4919096;29;20449;-67
2023/10/01 06:39:37;;;;;;;11.50;10.43;;;;;;;;;;4915037;29;20469;-67
2023/10/01 06:42:19;;;;;;;14.73;13.43;;;;;;;;;;4918492;29;20435;-67
2023/10/01 06:44:49;;;;;;;5.57;4.45;;;;;;;;;;4923041;29;20564;-67
2023/10/01 06:47:28;;;;;;;5.57;5.18;;;;;;;;;;4922066;29;20449;-67
2023/10/01 06:52:34;;;;;;;11.27;9.60;;;;;;;;;;4915315;29;20512;-67
2023/10/01 06:55:02;;;;;;;6.22;5.40;;;;;;;;;;4904974;29;20441;-67
2023/10/01 06:57:33;;;;;;;6.43;5.90;;;;;;;;;;4915649;29;20468;-67
2023/10/01 07:00:01;;;;;;;30.85;28.70;;;;;;;;;;4920237;29;20531;-67
2023/10/01 07:02:29;;;;;;;57.90;53.78;;;;;;;;;;4917197;29;20504;-67
2023/10/01 07:04:58;;;;;;;7.78;6.88;;;;;;;;;;4926341;29;20439;-67
2023/10/01 07:07:42;;;;;;;40.40;37.63;;;;;;;;;;4915882;29;20452;-67
2023/10/01 07:10:10;;;;;;;12.40;11.45;;;;;;;;;;4923598;29;20445;-67
2023/10/01 07:12:39;;;;;;;97.68;90.55;;;;;;;;;;4922331;29;20463;-67
2023/10/01 07:15:06;;;;;;;427.88;385.50;;;;;;;;;;4918790;29;20443;-67
2023/10/01 07:17:35;;;;;;;730.35;666.42;;;;;;;;;;4914831;29;20440;-67
2023/10/01 07:20:18;;;;;;;737.28;670.38;;;;;;;;;;4922820;29;20440;-68
2023/10/01 07:22:46;;;;;;;685.63;622.13;;;;;;;;;;4917996;29;21077;-68
2023/10/01 07:25:37;;;;;;;725.67;658.70;;;;;;;;;;4922527;29;20448;-67
2023/10/01 07:28:12;;;;;;;682.65;620.00;;;;;;;;;;4912207;29;20460;-67
2023/10/01 07:30:48;;;;;;;105.10;97.38;;;;;;;;;;4924934;29;20538;-67
2023/10/01 07:33:17;;;;;;;84.82;78.38;;;;;;;;;;4927837;29;20437;-68
2023/10/01 07:35:58;;;;;;;26.65;24.40;;;;;;;;;;4927696;29;20910;-67
2023/10/01 07:38:28;;;;;;;6.50;4.60;;;;;;;;;;4924064;29;20451;-67
2023/10/01 07:40:58;;;;;;;42.05;38.53;;;;;;;;;;4908059;29;20938;-68
2023/10/01 07:43:26;;;;;;;16.33;14.75;;;;;;;;;;4905018;29;20526;-68
2023/10/01 07:46:07;;;;;;;5.97;4.28;;;;;;;;;;4926994;29;20439;-68
2023/10/01 07:48:38;;;;;;;7.57;4.82;;;;;;;;;;4925188;29;20446;-68
2023/10/01 07:51:22;;;;;;;7.05;4.68;;;;;;;;;;4918288;29;20445;-68
2023/10/01 07:53:53;;;;;;;12.60;5.97;;;;;;;;;;4926634;29;20513;-68
2023/10/01 07:56:23;;;;;;;8.17;5.63;;;;;;;;;;4916719;29;20567;-68
2023/10/01 07:59:16;;;;;;;11.25;10.18;;;;;;;;;;4917483;29;20526;-68
2023/10/01 08:01:46;;;;;;;8.95;5.85;;;;;;;;;;4923416;29;20530;-67
2023/10/01 08:07:15;;;;;;;45.65;41.88;;;;;;;;;;4922811;29;20452;-67
2023/10/01 08:09:58;;;;;;;14.82;13.48;;;;;;;;;;4923250;29;20448;-67
2023/10/01 08:13:04;;;;;;;10.30;6.03;;;;;;;;;;4922833;29;20443;-68
2023/10/01 08:15:29;;;;;;;9.32;5.93;;;;;;;;;;4919403;29;20442;-67
2023/10/01 08:18:19;;;;;;;9.00;6.28;;;;;;;;;;4922611;29;20527;-67
2023/10/01 08:20:59;;;;;;;9.32;5.90;;;;;;;;;;4924826;29;20441;-67
2023/10/01 08:23:26;;;;;;;19.35;17.45;;;;;;;;;;4915142;29;20468;-69
2023/10/01 08:25:55;;;;;;;12.25;8.20;;;;;;;;;;4902527;29;20467;-67
2023/10/01 08:28:26;;;;;;;9.95;6.75;;;;;;;;;;4919997;29;20733;-68
2023/10/01 08:31:20;;;;;;;11.50;6.65;;;;;;;;;;4923660;29;20445;-68
2023/10/01 08:34:22;;;;;;;11.52;7.25;;;;;;;;;;4928624;29;20494;-67
2023/10/01 08:36:44;;;;;;;12.00;6.80;;;;;;;;;;4920633;29;20450;-68
2023/10/01 08:39:22;;;;;;;11.50;6.93;;;;;;;;;;4922952;29;20448;-69
2023/10/01 08:41:52;;;;;;;12.25;7.70;;;;;;;;;;4928667;29;20539;-67
2023/10/01 08:44:30;;;;;;;12.10;7.03;;;;;;;;;;4928152;29;20527;-68
2023/10/01 08:47:21;;;;;;;72.40;66.32;;;;;;;;;;4929394;29;20534;-67
2023/10/01 08:49:51;;;;;;;14.77;7.63;;;;;;;;;;4930953;29;20550;-66
2023/10/01 08:52:31;;;;;;;13.77;7.60;;;;;;;;;;4926548;29;20982;-67
2023/10/01 08:54:58;;;;;;;13.90;7.43;;;;;;;;;;4904871;29;20443;-67
2023/10/01 08:57:38;;;;;;;12.67;7.00;;;;;;;;;;4920177;29;20522;-68
2023/10/01 09:00:20;;;;;;;15.63;7.60;;;;;;;;;;4925723;29;20519;-67
2023/10/01 09:02:50;;;;;;;14.80;7.32;;;;;;;;;;4918348;29;20518;-68
2023/10/01 09:05:23;;;;;;;16.70;7.55;;;;;;;;;;4929133;29;20467;-67
2023/10/01 09:08:15;;;;;;;15.30;7.47;;;;;;;;;;4924747;29;20448;-68
2023/10/01 09:10:48;;;;;;;10.90;6.40;;;;;;;;;;4923552;29;20444;-67
2023/10/01 09:13:21;;;;;;;36.97;33.33;;;;;;;;;;4919283;29;20451;-67
2023/10/01 09:15:54;;;;;;;43.15;39.30;;;;;;;;;;4929839;29;20854;-67
2023/10/01 09:18:28;;;;;;;11.63;6.50;;;;;;;;;;4921520;29;20508;-68
2023/10/01 09:23:57;;;;;;;17.38;6.72;;;;;;;;;;4915543;29;20524;-68
2023/10/01 09:26:37;;;;;;;12.27;6.95;;;;;;;;;;4904957;29;20445;-68
2023/10/01 09:29:14;;;;;;;14.25;7.10;;;;;;;;;;4916857;29;20436;-67
2023/10/01 09:31:59;;;;;;;16.85;9.45;;;;;;;;;;4919449;29;20528;-66
2023/10/01 09:34:33;;;;;;;11.20;6.80;;;;;;;;;;4903115;29;20440;-67
2023/10/01 09:37:11;;;;;;;13.18;7.60;;;;;;;;;;4905554;29;20469;-68
2023/10/01 09:39:42;;;;;;;332.85;304.30;;;;;;;;;;4925482;29;20439;-68
2023/10/01 09:42:24;;;;;;;15.88;14.20;;;;;;;;;;4922175;29;20469;-68
2023/10/01 09:45:09;;;;;;;13.73;7.47;;;;;;;;;;4929140;29;20498;-67
2023/10/01 09:47:36;;;;;;;551.58;501.60;;;;;;;;;;4926812;29;20503;-67
2023/10/01 09:50:06;;;;;;;50.15;46.08;;;;;;;;;;4925318;29;20445;-69
2023/10/01 09:52:48;;;;;;;649.47;590.63;;;;;;;;;;4921847;29;20943;-68
2023/10/01 09:55:26;;;;;;;643.83;585.17;;;;;;;;;;4916413;29;20479;-68
2023/10/01 09:57:54;;;;;;;701.97;639.08;;;;;;;;;;4918007;29;20526;-68
2023/10/01 10:00:39;;;;;;;636.30;578.00;;;;;;;;;;4914275;29;20541;-69
2023/10/01 10:03:12;;;;;;;855.30;783.03;;;;;;;;;;4922805;29;20467;-68
2023/10/01 10:05:40;;;;;;;952.90;869.83;;;;;;;;;;4926748;29;20445;-68
2023/10/01 10:08:14;;;;;;;928.05;850.20;;;;;;;;;;4916023;29;20551;-68
2023/10/01 10:10:48;;;;;;;952.60;869.65;;;;;;;;;;4928605;29;20855;-67
2023/10/01 10:13:48;;;;;;;931.22;853.03;;;;;;;;;;4923475;29;20448;-69
2023/10/01 10:16:32;;;;;;;955.55;867.45;;;;;;;;;;4918871;29;20473;-69
2023/10/01 10:19:08;;;;;;;929.17;850.17;;;;;;;;;;4915651;29;20518;-70
2023/10/01 10:24:30;;;;;;;36.55;33.25;;;;;;;;;;4917895;29;20773;-68
2023/10/01 10:27:15;;;;;;;182.65;167.57;;;;;;;;;;4922431;29;20975;-68
2023/10/01 10:29:57;;;;;;;190.63;174.93;;;;;;;;;;4927103;29;20483;-67
2023/10/01 10:32:26;;;;;;;25.05;22.75;;;;;;;;;;4926300;29;20452;-69
2023/10/01 10:35:03;;;;;;;484.83;438.30;;;;;;;;;;4914673;29;20480;-68
2023/10/01 10:37:37;;;;;;;61.88;56.85;;;;;;;;;;4920408;29;20937;-68
2023/10/01 10:42:57;;;;;;;247.93;227.02;;;;;;;;;;4920148;29;20444;-69
2023/10/01 10:45:54;;;;;;;128.18;117.95;;;;;;;;;;4917678;29;20522;-70
2023/10/01 10:48:27;;;;;;;20.10;18.05;;;;;;;;;;4923506;29;20453;-69
2023/10/01 10:50:57;;;;;;;11.20;6.25;;;;;;;;;;4915924;29;20808;-69
2023/10/01 10:53:43;;;;;;;63.05;57.88;;;;;;;;;;4916465;29;20826;-69
2023/10/01 10:56:35;;;;;;;537.47;488.15;;;;;;;;;;4922023;29;20485;-68
2023/10/01 10:59:03;;;;;;;11.97;10.23;;;;;;;;;;4920993;29;20457;-70
2023/10/01 11:01:43;;;;;;;11.13;5.05;;;;;;;;;;4923255;29;21091;-68
2023/10/01 11:04:12;;;;;;;12.50;5.27;;;;;;;;;;4925110;29;20442;-69
2023/10/01 11:06:42;;;;;;;9.38;5.30;;;;;;;;;;4918382;29;20911;-68
2023/10/01 11:09:25;;;;;;;10.10;5.37;;;;;;;;;;4914305;29;20896;-68
2023/10/01 11:11:53;;;;;;;8.07;4.75;;;;;;;;;;4922313;29;20454;-70
2023/10/01 11:14:20;;;;;;;8.80;4.55;;;;;;;;;;4919533;29;20473;-70
2023/10/01 11:16:48;;;;;;;11.30;5.45;;;;;;;;;;4918399;29;20979;-68
2023/10/01 11:19:18;;;;;;;10.13;5.33;;;;;;;;;;4919389;29;20538;-70
2023/10/01 11:21:55;;;;;;;9.55;5.38;;;;;;;;;;4915702;29;20453;-70
2023/10/01 11:24:24;;;;;;;9.05;4.78;;;;;;;;;;4918614;29;20886;-70
2023/10/01 11:27:11;;;;;;;8.30;4.80;;;;;;;;;;4923269;29;20446;-71
2023/10/01 11:29:39;;;;;;;11.25;5.18;;;;;;;;;;4913484;29;20958;-69
2023/10/01 11:32:07;;;;;;;9.07;4.67;;;;;;;;;;4920650;29;20926;-67
2023/10/01 11:34:55;;;;;;;8.40;4.72;;;;;;;;;;4927691;29;20530;-69
2023/10/01 11:37:30;;;;;;;8.77;4.97;;;;;;;;;;4924016;29;20454;-68
2023/10/01 11:39:57;;;;;;;8.25;4.70;;;;;;;;;;4924354;29;20436;-69
2023/10/01 11:42:52;;;;;;;8.25;4.97;;;;;;;;;;4912012;29;20456;-69
2023/10/01 11:45:31;;;;;;;9.65;5.82;;;;;;;;;;4919682;29;20758;-69
2023/10/01 11:48:19;;;;;;;18.97;17.20;;;;;;;;;;4924541;29;20940;-70
2023/10/01 11:50:50;;;;;;;52.40;48.10;;;;;;;;;;4923271;29;20794;-71
2023/10/01 11:53:28;;;;;;;9.57;5.00;;;;;;;;;;4925523;29;20447;-70
2023/10/01 11:56:01;;;;;;;11.00;4.88;;;;;;;;;;4922213;29;21022;-69
2023/10/01 11:58:32;;;;;;;10.20;5.60;;;;;;;;;;4921393;29;20522;-70
2023/10/01 12:01:11;;;;;;;8.38;4.93;;;;;;;;;;4919895;29;20524;-70
2023/10/01 12:03:38;;;;;;;10.53;5.57;;;;;;;;;;4914012;29;20443;-70
2023/10/01 12:06:05;;;;;;;8.98;5.05;;;;;;;;;;4923517;29;20451;-69
2023/10/01 12:08:35;;;;;;;9.05;5.25;;;;;;;;;;4917865;29;20443;-70
2023/10/01 12:11:26;;;;;;;9.40;5.13;;;;;;;;;;4921527;29;20441;-70
2023/10/01 12:14:05;;;;;;;10.20;5.10;;;;;;;;;;4920808;29;20528;-69
2023/10/01 12:16:34;;;;;;;9.57;4.90;;;;;;;;;;4921786;29;20449;-71
2023/10/01 12:22:04;;;;;;;8.15;4.65;;;;;;;;;;4918617;29;20481;-70
2023/10/01 12:24:39;;;;;;;9.07;5.30;;;;;;;;;;4920861;29;20433;-69
2023/10/01 12:27:07;;;;;;;9.20;4.53;;;;;;;;;;4924805;29;20451;-69
2023/10/01 12:29:42;;;;;;;9.97;5.07;;;;;;;;;;4927606;29;20443;-68
2023/10/01 12:32:10;;;;;;;8.60;4.90;;;;;;;;;;4925270;29;20449;-68
2023/10/01 12:34:42;;;;;;;10.23;4.95;;;;;;;;;;4909415;29;20512;-68
2023/10/01 12:38:05;;;;;;;17.00;13.60;;;;;;;;;;4920330;29;20532;-71
2023/10/01 12:40:16;;;;;;;9.73;4.70;;;;;;;;;;4911304;29;20483;-68
2023/10/01 12:42:50;;;;;;;8.27;4.85;;;;;;;;;;4926147;29;20468;-70
2023/10/01 12:45:22;;;;;;;141.98;130.40;;;;;;;;;;4924324;29;20447;-67
2023/10/01 12:47:52;;;;;;;133.25;122.00;;;;;;;;;;4918592;29;20445;-68
2023/10/01 12:50:26;;;;;;;19.15;16.90;;;;;;;;;;4922065;29;20832;-69
2023/10/01 12:55:52;;;;;;;7.78;4.70;;;;;;;;;;4919633;29;20544;-69
2023/10/01 12:58:35;;;;;;;9.68;4.63;;;;;;;;;;4920501;29;20452;-69
2023/10/01 13:01:07;;;;;;;11.13;4.80;;;;;;;;;;4926328;29;20438;-71
2023/10/01 13:03:42;;;;;;;7.90;5.03;;;;;;;;;;4924326;29;20450;-69
2023/10/01 13:06:13;;;;;;;9.27;5.05;;;;;;;;;;4912313;29;20439;-68
2023/10/01 13:08:44;;;;;;;9.68;4.70;;;;;;;;;;4916053;29;20445;-71
2023/10/01 13:14:16;;;;;;;8.57;4.90;;;;;;;;;;4919027;29;20522;-69
2023/10/01 13:16:56;;;;;;;11.53;6.10;;;;;;;;;;4910979;29;20447;-69
2023/10/01 13:19:33;;;;;;;9.52;4.70;;;;;;;;;;4924922;29;20528;-70
2023/10/01 13:22:04;;;;;;;7.78;4.72;;;;;;;;;;4925373;29;20435;-70
2023/10/01 13:24:33;;;;;;;9.43;5.13;;;;;;;;;;4926584;29;20443;-67
2023/10/01 13:27:10;;;;;;;9.45;5.70;;;;;;;;;;4927830;29;20855;-70
2023/10/01 13:29:38;;;;;;;9.80;5.10;;;;;;;;;;4929965;29;20449;-68
2023/10/01 13:32:15;;;;;;;9.73;4.90;;;;;;;;;;4923822;29;20442;-69
2023/10/01 13:34:54;;;;;;;10.85;5.60;;;;;;;;;;4921416;29;21064;-70
2023/10/01 14:10:26;;;;;;;9.23;4.75;;;;;;;;;;4925882;29;20499;-70
2023/10/01 14:13:06;;;;;;;9.47;4.70;;;;;;;;;;4926213;29;20447;-69
2023/10/01 14:15:36;;;;;;;7.65;4.72;;;;;;;;;;4896837;29;20932;-70
2023/10/01 14:18:08;;;;;;;8.00;4.85;;;;;;;;;;4919339;29;20447;-69
2023/10/01 14:23:28;;;;;;;14.60;12.13;;;;;;;;;;4923659;29;20547;-71
2023/10/01 14:25:58;;;;;;;9.73;4.82;;;;;;;;;;4923211;29;20436;-69
2023/10/01 14:28:29;;;;;;;9.33;5.10;;;;;;;;;;4914875;29;20971;-70
2023/10/01 14:31:07;;;;;;;19.97;17.40;;;;;;;;;;4922224;29;20439;-70
2023/10/01 14:33:39;;;;;;;14.90;13.40;;;;;;;;;;4916704;29;20441;-71
2023/10/01 14:36:10;;;;;;;226.05;205.43;;;;;;;;;;4899675;29;20550;-68
2023/10/01 14:38:41;;;;;;;7.80;5.00;;;;;;;;;;4923502;29;20442;-69
2023/10/01 14:41:15;;;;;;;45.95;42.03;;;;;;;;;;4916070;29;20452;-71
2023/10/01 14:43:51;;;;;;;11.35;9.93;;;;;;;;;;4912490;29;20820;-69
2023/10/01 14:46:19;;;;;;;10.23;5.30;;;;;;;;;;4926802;29;20446;-69
2023/10/01 14:48:47;;;;;;;7.60;4.80;;;;;;;;;;4924194;29;20448;-71
2023/10/01 14:51:34;;;;;;;9.93;5.05;;;;;;;;;;4920133;29;20919;-69
2023/10/01 14:54:03;;;;;;;52.78;47.70;;;;;;;;;;4928134;29;20510;-70
2023/10/01 14:56:32;;;;;;;28.02;25.48;;;;;;;;;;4924457;29;20528;-70
2023/10/01 14:58:59;;;;;;;7.40;4.28;;;;;;;;;;4918420;29;20510;-70
2023/10/01 15:01:37;;;;;;;7.28;4.60;;;;;;;;;;4920347;29;20443;-71
2023/10/01 15:04:20;;;;;;;31.58;28.90;;;;;;;;;;4919547;29;20547;-69
2023/10/01 15:06:57;;;;;;;10.23;7.60;;;;;;;;;;4903179;29;20450;-69
2023/10/01 15:09:25;;;;;;;8.77;5.95;;;;;;;;;;4926683;29;20479;-70
2023/10/01 15:11:55;;;;;;;13.98;9.85;;;;;;;;;;4928680;29;20944;-70
2023/10/01 15:14:26;;;;;;;65.38;60.30;;;;;;;;;;4926225;29;21003;-69
2023/10/01 15:17:07;;;;;;;411.00;374.33;;;;;;;;;;4906634;29;20950;-68
2023/10/01 15:19:46;;;;;;;37.40;34.13;;;;;;;;;;4918422;29;20475;-70
2023/10/01 15:22:19;;;;;;;21.37;19.60;;;;;;;;;;4922499;29;20441;-68
2023/10/01 15:24:47;;;;;;;569.08;518.38;;;;;;;;;;4925604;29;20888;-70
2023/10/01 15:27:25;;;;;;;64.97;60.08;;;;;;;;;;4918377;29;20436;-70
2023/10/01 15:29:55;;;;;;;778.22;712.97;;;;;;;;;;4918466;29;20454;-70
2023/10/01 15:32:24;;;;;;;552.15;502.98;;;;;;;;;;4921026;29;20435;-71
2023/10/01 15:34:56;;;;;;;352.90;323.33;;;;;;;;;;4920271;29;20497;-69
2023/10/01 15:37:29;;;;;;;759.13;695.25;;;;;;;;;;4924617;29;22158;-70
2023/10/01 15:40:00;;;;;;;885.70;813.03;;;;;;;;;;4922487;29;20468;-70
2023/10/01 15:42:34;;;;;;;468.98;428.65;;;;;;;;;;4928347;29;20532;-71
2023/10/01 15:45:15;;;;;;;298.95;272.45;;;;;;;;;;4913973;29;20448;-71
2023/10/01 15:47:46;;;;;;;279.67;256.60;;;;;;;;;;4918829;29;20431;-70
2023/10/01 15:50:16;;;;;;;237.23;218.52;;;;;;;;;;4918275;29;20440;-69
2023/10/01 15:52:47;;;;;;;437.33;399.13;;;;;;;;;;4921195;29;20787;-69
2023/10/01 15:55:40;;;;;;;996.00;913.75;;;;;;;;;;4921839;29;20877;-70
2023/10/01 15:58:07;;;;;;;1059.78;966.55;;;;;;;;;;4915168;29;20443;-70
2023/10/01 16:00:35;;;;;;;1057.88;966.70;;;;;;;;;;4926965;29;20570;-70
2023/10/01 16:03:11;;;;;;;1009.92;921.33;;;;;;;;;;4917977;29;20458;-68
2023/10/01 16:05:45;;;;;;;984.03;904.88;;;;;;;;;;4919373;29;20558;-70
2023/10/01 16:08:20;;;;;;;252.90;232.68;;;;;;;;;;4918314;29;20504;-70
2023/10/01 16:10:52;;;;;;;121.45;112.07;;;;;;;;;;4928334;29;20554;-70
2023/10/01 16:13:29;;;;;;;43.23;39.73;;;;;;;;;;4920233;29;20439;-70
2023/10/01 16:16:09;;;;;;;373.07;341.53;;;;;;;;;;4927684;29;21017;-70
2023/10/01 16:18:38;;;;;;;336.38;308.10;;;;;;;;;;4918570;29;20441;-71